sensor_id;sensor_type;location;lat;lon;timestamp;temperature;humidity
41262;DHT22;29629;52.532;13.352;2024-02-28T00:02:01;6.20;99.90
41262;DHT22;29629;52.532;13.352;2024-02-28T00:04:29;6.20;99.90
41262;DHT22;29629;52.532;13.352;2024-02-28T00:06:56;6.20;99.90
41262;DHT22;29629;52.532;13.352;2024-02-28T00:09:24;6.30;99.90
41262;DHT22;29629;52.532;13.352;2024-02-28T00:11:51;6.30;99.90
41262;DHT22;29629;52.532;13.352;2024-02-28T00:14:18;6.20;99.90
41262;DHT22;29629;52.532;13.352;2024-02-28T00:16:45;6.20;99.90
41262;DHT22;29629;52.532;13.352;2024-02-28T00:19:13;6.30;99.90
41262;DHT22;29629;52.532;13.352;2024-02-28T00:21:42;6.30;99.90
41262;DHT22;29629;52.532;13.352;2024-02-28T00:24:09;6.20;99.90
41262;DHT22;29629;52.532;13.352;2024-02-28T00:26:40;6.20;99.90
41262;DHT22;29629;52.532;13.352;2024-02-28T00:29:07;6.20;99.90
41262;DHT22;29629;52.532;13.352;2024-02-28T00:31:34;6.20;99.90
41262;DHT22;29629;52.532;13.352;2024-02-28T00:34:01;6.20;99.90
41262;DHT22;29629;52.532;13.352;2024-02-28T00:36:28;6.20;99.90
41262;DHT22;29629;52.532;13.352;2024-02-28T00:38:56;6.00;99.90
41262;DHT22;29629;52.532;13.352;2024-02-28T00:41:23;6.10;99.90
41262;DHT22;29629;52.532;13.352;2024-02-28T00:43:50;6.00;99.90
41262;DHT22;29629;52.532;13.352;2024-02-28T00:46:17;6.00;99.90
41262;DHT22;29629;52.532;13.352;2024-02-28T00:48:44;6.00;99.90
41262;DHT22;29629;52.532;13.352;2024-02-28T00:51:11;6.10;99.90
41262;DHT22;29629;52.532;13.352;2024-02-28T00:53:38;6.10;99.90
41262;DHT22;29629;52.532;13.352;2024-02-28T00:56:06;6.10;99.90
41262;DHT22;29629;52.532;13.352;2024-02-28T00:58:33;6.20;99.90
41262;DHT22;29629;52.532;13.352;2024-02-28T01:01:00;6.10;99.90
41262;DHT22;29629;52.532;13.352;2024-02-28T01:03:27;6.10;99.90
41262;DHT22;29629;52.532;13.352;2024-02-28T01:05:54;6.10;99.90
41262;DHT22;29629;52.532;13.352;2024-02-28T01:08:21;6.10;99.90
41262;DHT22;29629;52.532;13.352;2024-02-28T01:10:49;6.10;99.90
41262;DHT22;29629;52.532;13.352;2024-02-28T01:13:17;6.10;99.90
41262;DHT22;29629;52.532;13.352;2024-02-28T01:15:44;6.10;99.90
41262;DHT22;29629;52.532;13.352;2024-02-28T01:18:11;6.00;99.90
41262;DHT22;29629;52.532;13.352;2024-02-28T01:20:38;5.90;99.90
41262;DHT22;29629;52.532;13.352;2024-02-28T01:23:05;5.90;99.90
41262;DHT22;29629;52.532;13.352;2024-02-28T01:25:32;6.00;99.90
41262;DHT22;29629;52.532;13.352;2024-02-28T01:27:59;6.10;99.90
41262;DHT22;29629;52.532;13.352;2024-02-28T01:30:27;5.90;99.90
41262;DHT22;29629;52.532;13.352;2024-02-28T01:32:54;6.00;99.90
41262;DHT22;29629;52.532;13.352;2024-02-28T01:35:21;6.00;99.90
41262;DHT22;29629;52.532;13.352;2024-02-28T01:37:48;6.00;99.90
41262;DHT22;29629;52.532;13.352;2024-02-28T01:40:15;5.90;99.90
41262;DHT22;29629;52.532;13.352;2024-02-28T01:42:42;6.00;99.90
41262;DHT22;29629;52.532;13.352;2024-02-28T01:45:13;6.00;99.90
41262;DHT22;29629;52.532;13.352;2024-02-28T01:47:42;6.00;99.90
41262;DHT22;29629;52.532;13.352;2024-02-28T01:50:09;6.00;99.90
41262;DHT22;29629;52.532;13.352;2024-02-28T01:52:38;6.00;99.90
41262;DHT22;29629;52.532;13.352;2024-02-28T01:55:05;6.00;99.90
41262;DHT22;29629;52.532;13.352;2024-02-28T01:57:33;6.00;99.90
41262;DHT22;29629;52.532;13.352;2024-02-28T02:00:02;6.00;99.90
41262;DHT22;29629;52.532;13.352;2024-02-28T02:02:30;6.00;99.90
41262;DHT22;29629;52.532;13.352;2024-02-28T02:04:58;6.10;99.90
41262;DHT22;29629;52.532;13.352;2024-02-28T02:07:25;6.00;99.90
41262;DHT22;29629;52.532;13.352;2024-02-28T02:09:52;6.00;99.90
41262;DHT22;29629;52.532;13.352;2024-02-28T02:12:19;6.10;99.90
41262;DHT22;29629;52.532;13.352;2024-02-28T02:14:47;6.00;99.90
41262;DHT22;29629;52.532;13.352;2024-02-28T02:17:14;6.00;99.90
41262;DHT22;29629;52.532;13.352;2024-02-28T02:19:42;6.00;99.90
41262;DHT22;29629;52.532;13.352;2024-02-28T02:22:13;6.00;99.90
41262;DHT22;29629;52.532;13.352;2024-02-28T02:24:41;6.00;99.90
41262;DHT22;29629;52.532;13.352;2024-02-28T02:27:09;6.00;99.90
41262;DHT22;29629;52.532;13.352;2024-02-28T02:29:36;6.00;99.90
41262;DHT22;29629;52.532;13.352;2024-02-28T02:32:03;5.90;99.90
41262;DHT22;29629;52.532;13.352;2024-02-28T02:34:30;5.90;99.90
41262;DHT22;29629;52.532;13.352;2024-02-28T02:36:57;5.90;99.90
41262;DHT22;29629;52.532;13.352;2024-02-28T02:39:23;5.80;99.90
41262;DHT22;29629;52.532;13.352;2024-02-28T02:41:52;5.80;99.90
41262;DHT22;29629;52.532;13.352;2024-02-28T02:44:19;5.70;99.90
41262;DHT22;29629;52.532;13.352;2024-02-28T02:46:46;5.70;99.90
41262;DHT22;29629;52.532;13.352;2024-02-28T02:49:13;5.70;99.90
41262;DHT22;29629;52.532;13.352;2024-02-28T02:51:40;5.70;99.90
41262;DHT22;29629;52.532;13.352;2024-02-28T02:54:09;5.70;99.90
41262;DHT22;29629;52.532;13.352;2024-02-28T02:56:36;5.70;99.90
41262;DHT22;29629;52.532;13.352;2024-02-28T02:59:04;5.70;99.90
41262;DHT22;29629;52.532;13.352;2024-02-28T03:01:31;5.60;99.90
41262;DHT22;29629;52.532;13.352;2024-02-28T03:03:58;5.70;99.90
41262;DHT22;29629;52.532;13.352;2024-02-28T03:06:25;5.70;99.90
41262;DHT22;29629;52.532;13.352;2024-02-28T03:08:52;5.70;99.90
41262;DHT22;29629;52.532;13.352;2024-02-28T03:11:19;5.60;99.90
41262;DHT22;29629;52.532;13.352;2024-02-28T03:13:45;5.60;99.90
41262;DHT22;29629;52.532;13.352;2024-02-28T03:16:14;5.50;99.90
41262;DHT22;29629;52.532;13.352;2024-02-28T03:18:40;5.70;99.90
41262;DHT22;29629;52.532;13.352;2024-02-28T03:21:07;5.60;99.90
41262;DHT22;29629;52.532;13.352;2024-02-28T03:23:34;5.50;99.90
41262;DHT22;29629;52.532;13.352;2024-02-28T03:26:02;5.50;99.90
41262;DHT22;29629;52.532;13.352;2024-02-28T03:28:29;5.50;99.90
41262;DHT22;29629;52.532;13.352;2024-02-28T03:30:56;5.50;99.90
41262;DHT22;29629;52.532;13.352;2024-02-28T03:33:24;5.30;99.90
41262;DHT22;29629;52.532;13.352;2024-02-28T03:35:51;5.50;99.90
41262;DHT22;29629;52.532;13.352;2024-02-28T03:38:18;5.60;99.90
41262;DHT22;29629;52.532;13.352;2024-02-28T03:40:45;5.60;99.90
41262;DHT22;29629;52.532;13.352;2024-02-28T03:43:12;5.60;99.90
41262;DHT22;29629;52.532;13.352;2024-02-28T03:45:39;5.70;99.90
41262;DHT22;29629;52.532;13.352;2024-02-28T03:48:06;5.70;99.90
41262;DHT22;29629;52.532;13.352;2024-02-28T03:50:35;5.70;99.90
41262;DHT22;29629;52.532;13.352;2024-02-28T03:53:03;5.70;99.90
41262;DHT22;29629;52.532;13.352;2024-02-28T03:55:30;5.70;99.90
41262;DHT22;29629;52.532;13.352;2024-02-28T03:57:57;5.70;99.90
41262;DHT22;29629;52.532;13.352;2024-02-28T04:00:24;5.70;99.90
41262;DHT22;29629;52.532;13.352;2024-02-28T04:02:52;5.70;99.90
41262;DHT22;29629;52.532;13.352;2024-02-28T04:05:19;5.80;99.90
41262;DHT22;29629;52.532;13.352;2024-02-28T04:07:47;5.70;99.90
41262;DHT22;29629;52.532;13.352;2024-02-28T04:10:14;5.70;99.90
41262;DHT22;29629;52.532;13.352;2024-02-28T04:12:42;5.60;99.90
41262;DHT22;29629;52.532;13.352;2024-02-28T04:15:10;5.60;99.90
41262;DHT22;29629;52.532;13.352;2024-02-28T04:17:38;5.70;99.90
41262;DHT22;29629;52.532;13.352;2024-02-28T04:20:08;5.70;99.90
41262;DHT22;29629;52.532;13.352;2024-02-28T04:22:35;5.60;99.90
41262;DHT22;29629;52.532;13.352;2024-02-28T04:25:04;5.50;99.90
41262;DHT22;29629;52.532;13.352;2024-02-28T04:27:32;5.50;99.90
41262;DHT22;29629;52.532;13.352;2024-02-28T04:29:59;5.40;99.90
41262;DHT22;29629;52.532;13.352;2024-02-28T04:32:26;5.40;99.90
41262;DHT22;29629;52.532;13.352;2024-02-28T04:34:53;5.40;99.90
41262;DHT22;29629;52.532;13.352;2024-02-28T04:37:20;5.50;99.90
41262;DHT22;29629;52.532;13.352;2024-02-28T04:39:46;5.50;99.90
41262;DHT22;29629;52.532;13.352;2024-02-28T04:42:16;5.60;99.90
41262;DHT22;29629;52.532;13.352;2024-02-28T04:44:43;5.60;99.90
41262;DHT22;29629;52.532;13.352;2024-02-28T04:47:09;5.60;99.90
41262;DHT22;29629;52.532;13.352;2024-02-28T04:49:37;5.60;99.90
41262;DHT22;29629;52.532;13.352;2024-02-28T04:52:05;5.30;99.90
41262;DHT22;29629;52.532;13.352;2024-02-28T04:54:32;5.40;99.90
41262;DHT22;29629;52.532;13.352;2024-02-28T04:56:59;5.40;99.90
41262;DHT22;29629;52.532;13.352;2024-02-28T04:59:27;5.30;99.90
41262;DHT22;29629;52.532;13.352;2024-02-28T05:01:54;5.30;99.90
41262;DHT22;29629;52.532;13.352;2024-02-28T05:04:21;5.40;99.90
41262;DHT22;29629;52.532;13.352;2024-02-28T05:06:49;5.40;99.90
41262;DHT22;29629;52.532;13.352;2024-02-28T05:09:16;5.30;99.90
41262;DHT22;29629;52.532;13.352;2024-02-28T05:11:44;5.30;99.90
41262;DHT22;29629;52.532;13.352;2024-02-28T05:14:10;5.30;99.90
41262;DHT22;29629;52.532;13.352;2024-02-28T05:16:39;5.30;99.90
41262;DHT22;29629;52.532;13.352;2024-02-28T05:19:06;5.30;99.90
41262;DHT22;29629;52.532;13.352;2024-02-28T05:21:39;5.40;99.90
41262;DHT22;29629;52.532;13.352;2024-02-28T05:24:06;5.30;99.90
41262;DHT22;29629;52.532;13.352;2024-02-28T05:26:34;5.30;99.90
41262;DHT22;29629;52.532;13.352;2024-02-28T05:29:01;5.40;99.90
41262;DHT22;29629;52.532;13.352;2024-02-28T05:31:29;5.40;99.90
41262;DHT22;29629;52.532;13.352;2024-02-28T05:33:59;5.40;99.90
41262;DHT22;29629;52.532;13.352;2024-02-28T05:36:28;5.40;99.90
41262;DHT22;29629;52.532;13.352;2024-02-28T05:38:56;5.30;99.90
41262;DHT22;29629;52.532;13.352;2024-02-28T05:41:24;5.30;99.90
41262;DHT22;29629;52.532;13.352;2024-02-28T05:43:52;5.30;99.90
41262;DHT22;29629;52.532;13.352;2024-02-28T05:46:19;5.30;99.90
41262;DHT22;29629;52.532;13.352;2024-02-28T05:48:47;5.30;99.90
41262;DHT22;29629;52.532;13.352;2024-02-28T05:51:16;5.40;99.90
41262;DHT22;29629;52.532;13.352;2024-02-28T05:53:43;5.30;99.90
41262;DHT22;29629;52.532;13.352;2024-02-28T05:56:11;5.20;99.90
41262;DHT22;29629;52.532;13.352;2024-02-28T05:58:40;5.20;99.90
41262;DHT22;29629;52.532;13.352;2024-02-28T06:01:08;5.20;99.90
41262;DHT22;29629;52.532;13.352;2024-02-28T06:03:35;5.30;99.90
41262;DHT22;29629;52.532;13.352;2024-02-28T06:06:03;5.20;99.90
41262;DHT22;29629;52.532;13.352;2024-02-28T06:08:32;5.20;99.90
41262;DHT22;29629;52.532;13.352;2024-02-28T06:11:00;5.30;99.90
41262;DHT22;29629;52.532;13.352;2024-02-28T06:13:27;5.30;99.90
41262;DHT22;29629;52.532;13.352;2024-02-28T06:15:54;5.30;99.90
41262;DHT22;29629;52.532;13.352;2024-02-28T06:18:21;5.30;99.90
41262;DHT22;29629;52.532;13.352;2024-02-28T06:20:52;5.20;99.90
41262;DHT22;29629;52.532;13.352;2024-02-28T06:23:19;5.30;99.90
41262;DHT22;29629;52.532;13.352;2024-02-28T06:25:47;5.30;99.90
41262;DHT22;29629;52.532;13.352;2024-02-28T06:28:14;5.40;99.90
41262;DHT22;29629;52.532;13.352;2024-02-28T06:30:42;5.40;99.90
41262;DHT22;29629;52.532;13.352;2024-02-28T06:33:09;5.30;99.90
41262;DHT22;29629;52.532;13.352;2024-02-28T06:35:36;5.30;99.90
41262;DHT22;29629;52.532;13.352;2024-02-28T06:38:03;5.10;99.90
41262;DHT22;29629;52.532;13.352;2024-02-28T06:40:30;5.10;99.90
41262;DHT22;29629;52.532;13.352;2024-02-28T06:42:59;5.20;99.90
41262;DHT22;29629;52.532;13.352;2024-02-28T06:45:26;5.30;99.90
41262;DHT22;29629;52.532;13.352;2024-02-28T06:47:53;5.20;99.90
41262;DHT22;29629;52.532;13.352;2024-02-28T06:50:20;5.20;99.90
41262;DHT22;29629;52.532;13.352;2024-02-28T06:52:47;5.10;99.90
41262;DHT22;29629;52.532;13.352;2024-02-28T06:55:14;5.10;99.90
41262;DHT22;29629;52.532;13.352;2024-02-28T06:57:42;5.10;99.90
41262;DHT22;29629;52.532;13.352;2024-02-28T07:00:11;5.10;99.90
41262;DHT22;29629;52.532;13.352;2024-02-28T07:02:40;5.20;99.90
41262;DHT22;29629;52.532;13.352;2024-02-28T07:05:07;5.20;99.90
41262;DHT22;29629;52.532;13.352;2024-02-28T07:07:34;5.20;99.90
41262;DHT22;29629;52.532;13.352;2024-02-28T07:10:02;5.20;99.90
41262;DHT22;29629;52.532;13.352;2024-02-28T07:12:31;5.30;99.90
41262;DHT22;29629;52.532;13.352;2024-02-28T07:14:58;5.20;99.90
41262;DHT22;29629;52.532;13.352;2024-02-28T07:17:26;5.10;99.90
41262;DHT22;29629;52.532;13.352;2024-02-28T07:19:53;5.10;99.90
41262;DHT22;29629;52.532;13.352;2024-02-28T07:22:20;5.20;99.90
41262;DHT22;29629;52.532;13.352;2024-02-28T07:24:47;5.20;99.90
41262;DHT22;29629;52.532;13.352;2024-02-28T07:27:14;5.10;99.90
41262;DHT22;29629;52.532;13.352;2024-02-28T07:29:42;5.20;99.90
41262;DHT22;29629;52.532;13.352;2024-02-28T07:32:09;5.20;99.90
41262;DHT22;29629;52.532;13.352;2024-02-28T07:34:37;5.10;99.90
41262;DHT22;29629;52.532;13.352;2024-02-28T07:37:05;5.20;99.90
41262;DHT22;29629;52.532;13.352;2024-02-28T07:39:32;5.20;99.90
41262;DHT22;29629;52.532;13.352;2024-02-28T07:41:59;5.20;99.90
41262;DHT22;29629;52.532;13.352;2024-02-28T07:44:26;5.20;99.90
41262;DHT22;29629;52.532;13.352;2024-02-28T07:46:56;5.20;99.90
41262;DHT22;29629;52.532;13.352;2024-02-28T07:49:24;5.30;99.90
41262;DHT22;29629;52.532;13.352;2024-02-28T07:51:52;5.20;99.90
41262;DHT22;29629;52.532;13.352;2024-02-28T07:54:19;5.30;99.90
41262;DHT22;29629;52.532;13.352;2024-02-28T07:56:46;5.10;99.90
41262;DHT22;29629;52.532;13.352;2024-02-28T07:59:13;5.20;99.90
41262;DHT22;29629;52.532;13.352;2024-02-28T08:01:40;5.20;99.90
41262;DHT22;29629;52.532;13.352;2024-02-28T08:04:07;5.10;99.90
41262;DHT22;29629;52.532;13.352;2024-02-28T08:06:34;5.10;99.90
41262;DHT22;29629;52.532;13.352;2024-02-28T08:09:02;5.10;99.90
41262;DHT22;29629;52.532;13.352;2024-02-28T08:11:30;5.20;99.90
41262;DHT22;29629;52.532;13.352;2024-02-28T08:13:57;5.20;99.90
41262;DHT22;29629;52.532;13.352;2024-02-28T08:16:24;5.30;99.90
41262;DHT22;29629;52.532;13.352;2024-02-28T08:18:51;5.20;99.90
41262;DHT22;29629;52.532;13.352;2024-02-28T08:21:18;5.30;99.90
41262;DHT22;29629;52.532;13.352;2024-02-28T08:23:45;5.30;99.90
41262;DHT22;29629;52.532;13.352;2024-02-28T08:26:14;5.30;99.90
41262;DHT22;29629;52.532;13.352;2024-02-28T08:28:41;5.30;99.90
41262;DHT22;29629;52.532;13.352;2024-02-28T08:31:08;5.20;99.90
41262;DHT22;29629;52.532;13.352;2024-02-28T08:33:35;5.30;99.90
41262;DHT22;29629;52.532;13.352;2024-02-28T08:36:02;5.20;99.90
41262;DHT22;29629;52.532;13.352;2024-02-28T08:38:30;5.20;99.90
41262;DHT22;29629;52.532;13.352;2024-02-28T08:40:57;5.20;99.90
41262;DHT22;29629;52.532;13.352;2024-02-28T08:43:25;5.10;99.90
41262;DHT22;29629;52.532;13.352;2024-02-28T08:45:52;5.10;99.90
41262;DHT22;29629;52.532;13.352;2024-02-28T08:48:21;4.90;99.90
41262;DHT22;29629;52.532;13.352;2024-02-28T08:50:48;5.00;99.90
41262;DHT22;29629;52.532;13.352;2024-02-28T08:53:15;4.80;99.90
41262;DHT22;29629;52.532;13.352;2024-02-28T08:55:42;4.90;99.90
41262;DHT22;29629;52.532;13.352;2024-02-28T08:58:09;4.80;99.90
41262;DHT22;29629;52.532;13.352;2024-02-28T09:00:37;4.90;99.90
41262;DHT22;29629;52.532;13.352;2024-02-28T09:03:04;5.00;99.90
41262;DHT22;29629;52.532;13.352;2024-02-28T09:05:31;5.00;99.90
41262;DHT22;29629;52.532;13.352;2024-02-28T09:07:58;5.00;99.90
41262;DHT22;29629;52.532;13.352;2024-02-28T09:10:26;5.10;99.90
41262;DHT22;29629;52.532;13.352;2024-02-28T09:12:54;5.20;99.90
41262;DHT22;29629;52.532;13.352;2024-02-28T09:15:21;5.20;99.90
41262;DHT22;29629;52.532;13.352;2024-02-28T09:17:49;5.10;99.90
41262;DHT22;29629;52.532;13.352;2024-02-28T09:20:16;5.10;99.90
41262;DHT22;29629;52.532;13.352;2024-02-28T09:22:43;5.10;99.90
41262;DHT22;29629;52.532;13.352;2024-02-28T09:25:10;5.20;99.90
41262;DHT22;29629;52.532;13.352;2024-02-28T09:27:37;5.20;99.90
41262;DHT22;29629;52.532;13.352;2024-02-28T09:30:06;5.40;99.90
41262;DHT22;29629;52.532;13.352;2024-02-28T09:32:33;5.30;99.90
41262;DHT22;29629;52.532;13.352;2024-02-28T09:35:02;5.40;99.90
41262;DHT22;29629;52.532;13.352;2024-02-28T09:37:29;5.40;99.90
41262;DHT22;29629;52.532;13.352;2024-02-28T09:39:57;5.20;99.90
41262;DHT22;29629;52.532;13.352;2024-02-28T09:42:24;5.30;99.90
41262;DHT22;29629;52.532;13.352;2024-02-28T09:44:51;5.30;99.90
41262;DHT22;29629;52.532;13.352;2024-02-28T09:47:18;5.30;99.90
41262;DHT22;29629;52.532;13.352;2024-02-28T09:49:46;5.10;99.90
41262;DHT22;29629;52.532;13.352;2024-02-28T09:52:15;5.20;99.90
41262;DHT22;29629;52.532;13.352;2024-02-28T09:54:42;5.40;99.90
41262;DHT22;29629;52.532;13.352;2024-02-28T09:57:11;5.30;99.90
41262;DHT22;29629;52.532;13.352;2024-02-28T09:59:39;5.30;99.90
41262;DHT22;29629;52.532;13.352;2024-02-28T10:02:10;5.30;99.90
41262;DHT22;29629;52.532;13.352;2024-02-28T10:04:37;5.20;99.90
41262;DHT22;29629;52.532;13.352;2024-02-28T10:07:17;5.30;99.90
41262;DHT22;29629;52.532;13.352;2024-02-28T10:09:44;5.30;99.90
41262;DHT22;29629;52.532;13.352;2024-02-28T10:12:12;5.30;99.90
41262;DHT22;29629;52.532;13.352;2024-02-28T10:14:39;5.20;99.90
41262;DHT22;29629;52.532;13.352;2024-02-28T10:17:06;5.30;99.90
41262;DHT22;29629;52.532;13.352;2024-02-28T10:19:33;5.30;99.90
41262;DHT22;29629;52.532;13.352;2024-02-28T10:22:00;5.40;99.90
41262;DHT22;29629;52.532;13.352;2024-02-28T10:24:30;5.40;99.90
41262;DHT22;29629;52.532;13.352;2024-02-28T10:27:01;5.30;99.90
41262;DHT22;29629;52.532;13.352;2024-02-28T10:29:28;5.30;99.90
41262;DHT22;29629;52.532;13.352;2024-02-28T10:31:58;5.30;99.90
41262;DHT22;29629;52.532;13.352;2024-02-28T10:34:25;5.30;99.90
41262;DHT22;29629;52.532;13.352;2024-02-28T10:36:52;5.40;99.90
41262;DHT22;29629;52.532;13.352;2024-02-28T10:39:20;5.40;99.90
41262;DHT22;29629;52.532;13.352;2024-02-28T10:41:50;5.40;99.90
41262;DHT22;29629;52.532;13.352;2024-02-28T10:44:20;5.40;99.90
41262;DHT22;29629;52.532;13.352;2024-02-28T10:46:49;5.50;99.90
41262;DHT22;29629;52.532;13.352;2024-02-28T10:49:17;5.70;99.90
41262;DHT22;29629;52.532;13.352;2024-02-28T10:51:45;5.50;99.90
41262;DHT22;29629;52.532;13.352;2024-02-28T10:54:15;5.40;99.90
41262;DHT22;29629;52.532;13.352;2024-02-28T10:56:42;5.60;99.90
41262;DHT22;29629;52.532;13.352;2024-02-28T10:59:12;5.50;99.90
41262;DHT22;29629;52.532;13.352;2024-02-28T11:01:41;5.40;99.90
41262;DHT22;29629;52.532;13.352;2024-02-28T11:04:09;5.40;99.90
41262;DHT22;29629;52.532;13.352;2024-02-28T11:06:47;5.20;99.90
41262;DHT22;29629;52.532;13.352;2024-02-28T11:09:19;5.30;99.90
41262;DHT22;29629;52.532;13.352;2024-02-28T11:11:48;5.60;99.90
41262;DHT22;29629;52.532;13.352;2024-02-28T11:14:16;5.60;99.90
41262;DHT22;29629;52.532;13.352;2024-02-28T11:16:47;5.70;99.90
41262;DHT22;29629;52.532;13.352;2024-02-28T11:19:21;5.70;99.90
41262;DHT22;29629;52.532;13.352;2024-02-28T11:21:53;5.70;99.90
41262;DHT22;29629;52.532;13.352;2024-02-28T11:24:23;5.60;99.90
41262;DHT22;29629;52.532;13.352;2024-02-28T11:26:51;5.50;99.90
41262;DHT22;29629;52.532;13.352;2024-02-28T11:29:24;5.70;99.90
41262;DHT22;29629;52.532;13.352;2024-02-28T11:31:51;5.80;99.90
41262;DHT22;29629;52.532;13.352;2024-02-28T11:34:22;5.70;99.90
41262;DHT22;29629;52.532;13.352;2024-02-28T11:36:49;5.80;99.90
41262;DHT22;29629;52.532;13.352;2024-02-28T11:39:17;5.80;99.90
41262;DHT22;29629;52.532;13.352;2024-02-28T11:41:45;5.80;99.90
41262;DHT22;29629;52.532;13.352;2024-02-28T11:44:13;5.80;99.90
41262;DHT22;29629;52.532;13.352;2024-02-28T11:46:44;5.70;99.90
41262;DHT22;29629;52.532;13.352;2024-02-28T11:49:12;5.60;99.90
41262;DHT22;29629;52.532;13.352;2024-02-28T11:51:40;5.60;99.90
41262;DHT22;29629;52.532;13.352;2024-02-28T11:54:07;5.80;99.90
41262;DHT22;29629;52.532;13.352;2024-02-28T11:56:36;5.60;99.90
41262;DHT22;29629;52.532;13.352;2024-02-28T11:59:04;5.90;99.90
41262;DHT22;29629;52.532;13.352;2024-02-28T12:01:36;6.00;99.90
41262;DHT22;29629;52.532;13.352;2024-02-28T12:04:05;6.00;99.90
41262;DHT22;29629;52.532;13.352;2024-02-28T12:06:33;6.10;99.90
41262;DHT22;29629;52.532;13.352;2024-02-28T12:09:02;6.10;99.90
41262;DHT22;29629;52.532;13.352;2024-02-28T12:11:30;5.90;99.90
41262;DHT22;29629;52.532;13.352;2024-02-28T12:13:57;6.00;99.90
41262;DHT22;29629;52.532;13.352;2024-02-28T12:16:24;6.00;99.90
41262;DHT22;29629;52.532;13.352;2024-02-28T12:18:53;6.10;99.90
41262;DHT22;29629;52.532;13.352;2024-02-28T12:21:21;6.20;99.90
41262;DHT22;29629;52.532;13.352;2024-02-28T12:23:49;6.20;99.90
41262;DHT22;29629;52.532;13.352;2024-02-28T12:26:17;6.20;99.90
41262;DHT22;29629;52.532;13.352;2024-02-28T12:28:44;6.20;99.90
41262;DHT22;29629;52.532;13.352;2024-02-28T12:31:11;6.30;99.90
41262;DHT22;29629;52.532;13.352;2024-02-28T12:33:38;6.30;99.90
41262;DHT22;29629;52.532;13.352;2024-02-28T12:36:06;6.30;99.90
41262;DHT22;29629;52.532;13.352;2024-02-28T12:38:34;6.60;99.90
41262;DHT22;29629;52.532;13.352;2024-02-28T12:41:01;6.50;99.90
41262;DHT22;29629;52.532;13.352;2024-02-28T12:43:30;6.80;99.90
41262;DHT22;29629;52.532;13.352;2024-02-28T12:45:57;6.80;99.90
41262;DHT22;29629;52.532;13.352;2024-02-28T12:48:24;6.80;99.90
41262;DHT22;29629;52.532;13.352;2024-02-28T12:50:51;6.60;99.90
41262;DHT22;29629;52.532;13.352;2024-02-28T12:53:18;6.80;99.90
41262;DHT22;29629;52.532;13.352;2024-02-28T12:55:47;6.80;99.90
41262;DHT22;29629;52.532;13.352;2024-02-28T12:58:14;6.80;99.90
41262;DHT22;29629;52.532;13.352;2024-02-28T13:00:40;6.80;99.90
41262;DHT22;29629;52.532;13.352;2024-02-28T13:03:08;6.90;99.90
41262;DHT22;29629;52.532;13.352;2024-02-28T13:05:35;7.00;99.90
41262;DHT22;29629;52.532;13.352;2024-02-28T13:08:03;7.10;99.90
41262;DHT22;29629;52.532;13.352;2024-02-28T13:10:30;7.20;99.90
41262;DHT22;29629;52.532;13.352;2024-02-28T13:13:01;7.60;99.90
41262;DHT22;29629;52.532;13.352;2024-02-28T13:15:28;7.60;99.90
41262;DHT22;29629;52.532;13.352;2024-02-28T13:17:55;7.70;99.90
41262;DHT22;29629;52.532;13.352;2024-02-28T13:20:22;7.40;99.90
41262;DHT22;29629;52.532;13.352;2024-02-28T13:22:50;7.10;99.90
41262;DHT22;29629;52.532;13.352;2024-02-28T13:25:16;7.30;99.90
41262;DHT22;29629;52.532;13.352;2024-02-28T13:27:45;6.80;99.90
41262;DHT22;29629;52.532;13.352;2024-02-28T13:30:13;6.80;99.90
41262;DHT22;29629;52.532;13.352;2024-02-28T13:32:41;6.80;99.90
41262;DHT22;29629;52.532;13.352;2024-02-28T13:35:08;6.90;99.90
41262;DHT22;29629;52.532;13.352;2024-02-28T13:37:36;7.20;99.90
41262;DHT22;29629;52.532;13.352;2024-02-28T13:40:07;7.10;99.90
41262;DHT22;29629;52.532;13.352;2024-02-28T13:42:36;7.30;99.90
41262;DHT22;29629;52.532;13.352;2024-02-28T13:45:03;7.20;99.90
41262;DHT22;29629;52.532;13.352;2024-02-28T13:47:34;7.10;99.90
41262;DHT22;29629;52.532;13.352;2024-02-28T13:50:01;7.60;99.90
41262;DHT22;29629;52.532;13.352;2024-02-28T13:52:28;7.90;99.90
41262;DHT22;29629;52.532;13.352;2024-02-28T13:54:55;7.80;99.90
41262;DHT22;29629;52.532;13.352;2024-02-28T13:57:22;7.90;99.90
41262;DHT22;29629;52.532;13.352;2024-02-28T13:59:49;7.90;99.90
41262;DHT22;29629;52.532;13.352;2024-02-28T14:02:19;7.70;99.90
41262;DHT22;29629;52.532;13.352;2024-02-28T14:04:48;7.60;99.90
41262;DHT22;29629;52.532;13.352;2024-02-28T14:07:15;7.50;99.90
41262;DHT22;29629;52.532;13.352;2024-02-28T14:09:42;7.70;99.90
41262;DHT22;29629;52.532;13.352;2024-02-28T14:12:10;7.60;99.90
41262;DHT22;29629;52.532;13.352;2024-02-28T14:14:37;7.20;99.90
41262;DHT22;29629;52.532;13.352;2024-02-28T14:17:05;6.70;99.90
41262;DHT22;29629;52.532;13.352;2024-02-28T14:19:32;6.40;99.90
41262;DHT22;29629;52.532;13.352;2024-02-28T14:22:03;6.00;99.90
41262;DHT22;29629;52.532;13.352;2024-02-28T14:24:30;6.30;99.90
41262;DHT22;29629;52.532;13.352;2024-02-28T14:26:57;6.70;99.90
41262;DHT22;29629;52.532;13.352;2024-02-28T14:29:24;6.80;99.90
41262;DHT22;29629;52.532;13.352;2024-02-28T14:31:51;6.60;99.90
41262;DHT22;29629;52.532;13.352;2024-02-28T14:34:18;6.60;99.90
41262;DHT22;29629;52.532;13.352;2024-02-28T14:36:45;6.20;99.90
41262;DHT22;29629;52.532;13.352;2024-02-28T14:39:13;5.80;99.90
41262;DHT22;29629;52.532;13.352;2024-02-28T14:41:41;5.90;99.90
41262;DHT22;29629;52.532;13.352;2024-02-28T14:44:09;6.10;99.90
41262;DHT22;29629;52.532;13.352;2024-02-28T14:46:36;6.30;99.90
41262;DHT22;29629;52.532;13.352;2024-02-28T14:49:03;6.10;99.90
41262;DHT22;29629;52.532;13.352;2024-02-28T14:51:30;5.70;99.90
41262;DHT22;29629;52.532;13.352;2024-02-28T14:53:58;5.60;99.90
41262;DHT22;29629;52.532;13.352;2024-02-28T14:56:27;5.70;99.90
41262;DHT22;29629;52.532;13.352;2024-02-28T14:58:54;5.70;99.90
41262;DHT22;29629;52.532;13.352;2024-02-28T15:01:21;6.00;99.90
41262;DHT22;29629;52.532;13.352;2024-02-28T15:03:49;6.00;99.90
41262;DHT22;29629;52.532;13.352;2024-02-28T15:06:17;6.00;99.90
41262;DHT22;29629;52.532;13.352;2024-02-28T15:08:44;6.10;99.90
41262;DHT22;29629;52.532;13.352;2024-02-28T15:11:11;6.20;99.90
41262;DHT22;29629;52.532;13.352;2024-02-28T15:13:39;6.00;99.90
41262;DHT22;29629;52.532;13.352;2024-02-28T15:16:07;5.90;99.90
41262;DHT22;29629;52.532;13.352;2024-02-28T15:18:34;6.00;99.90
41262;DHT22;29629;52.532;13.352;2024-02-28T15:21:01;6.00;99.90
41262;DHT22;29629;52.532;13.352;2024-02-28T15:23:28;6.00;99.90
41262;DHT22;29629;52.532;13.352;2024-02-28T15:25:56;6.10;99.90
41262;DHT22;29629;52.532;13.352;2024-02-28T15:28:23;6.10;99.90
41262;DHT22;29629;52.532;13.352;2024-02-28T15:30:53;6.00;99.90
41262;DHT22;29629;52.532;13.352;2024-02-28T15:33:20;5.80;99.90